createdAt,value
2018-11-23T00:00:17.564Z,101555.33
2018-11-23T00:02:47.030Z,101558.81
2018-11-23T00:05:15.749Z,101559.75
2018-11-23T00:07:44.777Z,101561.55
2018-11-23T00:10:14.990Z,101564.13
2018-11-23T00:12:43.937Z,101567.22
2018-11-23T00:15:20.260Z,101569.44
2018-11-23T00:17:49.253Z,101573.35
2018-11-23T00:20:20.164Z,101572.56
2018-11-23T00:22:49.086Z,101576.48
2018-11-23T00:25:18.969Z,101583.39
2018-11-23T00:27:48.290Z,101584.28
2018-11-23T00:30:18.951Z,101578.27
2018-11-23T00:32:48.209Z,101578.27
2018-11-23T00:35:18.538Z,101587.25
2018-11-23T00:37:47.716Z,101584.67
2018-11-23T00:40:20.618Z,101585.89
2018-11-23T00:42:49.599Z,101590.14
2018-11-23T00:45:18.297Z,101588.39
2018-11-23T00:47:47.789Z,101592.22
2018-11-23T00:50:18.021Z,101590.89
2018-11-23T00:52:47.124Z,101589.13
2018-11-23T00:55:17.025Z,101580.03
2018-11-23T00:57:45.717Z,101586.83
2018-11-23T01:00:20.335Z,101579.01
2018-11-23T01:02:49.042Z,101581.94
2018-11-23T01:05:18.501Z,101575.45
2018-11-23T01:07:47.851Z,101577.13
2018-11-23T01:10:18.137Z,101579.20
2018-11-23T01:12:47.954Z,101572.28
2018-11-23T01:15:16.676Z,101577.83
2018-11-23T01:17:45.395Z,101571.80
2018-11-23T01:20:16.976Z,101576.06
2018-11-23T01:22:45.929Z,101566.56
2018-11-23T01:25:15.794Z,101572.59
2018-11-23T01:27:45.403Z,101569.14
2018-11-23T01:30:17.535Z,101568.33
2018-11-23T01:32:46.341Z,101570.08
2018-11-23T01:35:15.629Z,101575.33
2018-11-23T01:37:44.348Z,101571.11
2018-11-23T01:40:16.148Z,101576.78
2018-11-23T01:42:45.269Z,101577.25
2018-11-23T01:45:14.464Z,101582.41
2018-11-23T01:47:43.269Z,101570.34
2018-11-23T01:50:14.872Z,101569.52
2018-11-23T01:52:44.501Z,101568.31
2018-11-23T01:55:14.138Z,101575.70
2018-11-23T01:57:43.318Z,101567.14
2018-11-23T02:00:14.573Z,101569.30
2018-11-23T02:02:43.656Z,101570.22
2018-11-23T02:05:12.401Z,101571.12
2018-11-23T02:07:41.125Z,101575.46
2018-11-23T02:10:11.256Z,101570.81
2018-11-23T02:12:39.969Z,101569.95
2018-11-23T02:15:10.394Z,101563.13
2018-11-23T02:17:39.113Z,101562.30
2018-11-23T02:20:09.485Z,101562.34
2018-11-23T02:22:38.267Z,101567.10
2018-11-23T02:25:07.284Z,101563.70
2018-11-23T02:27:36.292Z,101562.48
2018-11-23T02:30:09.813Z,101558.66
2018-11-23T02:32:38.740Z,101553.55
2018-11-23T02:35:07.464Z,101557.88
2018-11-23T02:37:36.185Z,101553.62
2018-11-23T02:40:06.663Z,101553.66
2018-11-23T02:42:35.380Z,101556.27
2018-11-23T02:45:05.829Z,101556.30
2018-11-23T02:47:35.881Z,101553.30
2018-11-23T02:50:05.452Z,101554.20
2018-11-23T02:52:34.158Z,101552.95
2018-11-23T02:55:02.889Z,101553.84
2018-11-23T02:57:31.717Z,101555.16
2018-11-23T03:00:00.444Z,101556.95
2018-11-23T03:02:29.160Z,101551.38
2018-11-23T03:04:57.868Z,101556.63
2018-11-23T03:07:26.823Z,101552.45
2018-11-23T03:09:55.614Z,101541.75
2018-11-23T03:12:24.317Z,101547.83
2018-11-23T03:14:53.052Z,101547.86
2018-11-23T03:17:21.958Z,101547.05
2018-11-23T03:19:51.238Z,101541.95
2018-11-23T03:22:19.935Z,101544.17
2018-11-23T03:24:48.649Z,101545.49
2018-11-23T03:27:17.381Z,101550.25
2018-11-23T03:29:46.165Z,101543.95
2018-11-23T03:32:14.989Z,101547.05
2018-11-23T03:34:43.865Z,101548.80
2018-11-23T03:37:12.569Z,101544.94
2018-11-23T03:39:41.285Z,101544.94
2018-11-23T03:42:10.632Z,101554.73
2018-11-23T03:44:39.320Z,101549.98
2018-11-23T03:47:08.046Z,101539.69
2018-11-23T03:49:36.776Z,101539.26
2018-11-23T03:52:05.485Z,101539.69
2018-11-23T03:54:34.249Z,101536.66
2018-11-23T03:57:02.950Z,101533.25
2018-11-23T03:59:31.653Z,101529.39
2018-11-23T04:02:00.729Z,101525.99
2018-11-23T04:04:29.448Z,101528.14
2018-11-23T04:06:59.209Z,101522.20
2018-11-23T04:09:27.921Z,101520.52
2018-11-23T04:11:56.625Z,101518.01
2018-11-23T04:14:25.394Z,101516.72
2018-11-23T04:16:54.109Z,101521.93
2018-11-23T04:19:22.969Z,101519.39
2018-11-23T04:21:51.695Z,101513.88
2018-11-23T04:24:20.462Z,101515.63
2018-11-23T04:26:49.168Z,101512.23
2018-11-23T04:29:17.902Z,101514.80
2018-11-23T04:31:46.635Z,101510.58
2018-11-23T04:34:15.372Z,101511.89
2018-11-23T04:36:44.078Z,101508.95
2018-11-23T04:39:12.803Z,101510.70
2018-11-23T04:41:46.282Z,101507.70
2018-11-23T04:44:10.211Z,101511.13
2018-11-23T04:46:39.085Z,101509.41
2018-11-23T04:49:07.838Z,101516.27
2018-11-23T04:51:36.561Z,101515.45
2018-11-23T04:54:05.672Z,101511.98
2018-11-23T04:56:34.377Z,101515.88
2018-11-23T04:59:03.647Z,101516.77
2018-11-23T05:01:32.584Z,101528.73
2018-11-23T05:04:01.296Z,101527.48
2018-11-23T05:06:30.072Z,101531.80
2018-11-23T05:08:58.784Z,101528.42
2018-11-23T05:11:27.484Z,101527.63
2018-11-23T05:13:56.188Z,101523.00
2018-11-23T05:16:24.917Z,101520.52
2018-11-23T05:18:54.143Z,101519.71
2018-11-23T05:21:22.859Z,101518.02
2018-11-23T05:23:51.549Z,101522.34
2018-11-23T05:26:20.493Z,101520.66
2018-11-23T05:28:49.560Z,101514.25
2018-11-23T05:31:18.267Z,101514.25
2018-11-23T05:33:46.949Z,101510.86
2018-11-23T05:36:15.657Z,101500.11
2018-11-23T05:38:44.673Z,101498.85
2018-11-23T05:41:13.382Z,101487.74
2018-11-23T05:43:42.122Z,101486.88
2018-11-23T05:46:10.955Z,101493.77
2018-11-23T05:48:39.664Z,101492.48
2018-11-23T05:51:08.361Z,101490.80
2018-11-23T05:53:37.448Z,101489.94
2018-11-23T05:56:06.296Z,101490.80
2018-11-23T05:58:34.989Z,101483.94
2018-11-23T06:01:03.710Z,101484.83
2018-11-23T06:03:32.397Z,101484.85
2018-11-23T06:06:01.350Z,101488.31
2018-11-23T06:08:30.293Z,101484.87
2018-11-23T06:10:58.990Z,101486.20
2018-11-23T06:13:27.937Z,101490.91
2018-11-23T06:15:56.645Z,101492.62
2018-11-23T06:18:37.585Z,101488.77
2018-11-23T06:21:06.284Z,101488.73
2018-11-23T06:23:35.001Z,101485.77
2018-11-23T06:26:11.872Z,101487.87
2018-11-23T06:28:40.532Z,101487.05
2018-11-23T06:31:09.229Z,101486.68
2018-11-23T06:33:40.225Z,101487.58
2018-11-23T06:36:08.938Z,101488.09
2018-11-23T06:38:37.871Z,101493.70
2018-11-23T06:41:10.524Z,101495.47
2018-11-23T06:43:36.370Z,101488.25
2018-11-23T06:46:06.541Z,101494.29
2018-11-23T06:48:35.246Z,101495.59
2018-11-23T06:51:05.278Z,101495.67
2018-11-23T06:53:33.968Z,101501.69
2018-11-23T06:56:03.135Z,101500.42
2018-11-23T06:58:31.814Z,101498.73
2018-11-23T07:01:00.513Z,101502.98
2018-11-23T07:03:29.317Z,101502.59
2018-11-23T07:08:44.641Z,101502.16
2018-11-23T07:11:13.608Z,101504.80
2018-11-23T07:13:42.322Z,101507.38
2018-11-23T07:16:11.024Z,101500.11
2018-11-23T07:18:39.993Z,101499.68
2018-11-23T07:21:08.731Z,101499.28
2018-11-23T07:23:37.421Z,101501.41
2018-11-23T07:26:06.236Z,101504.84
2018-11-23T07:28:35.221Z,101504.84
2018-11-23T07:31:04.748Z,101507.41
2018-11-23T07:33:33.481Z,101504.39
2018-11-23T07:36:02.197Z,101511.22
2018-11-23T07:38:30.907Z,101514.16
2018-11-23T07:41:11.008Z,101517.19
2018-11-23T07:43:39.720Z,101517.23
2018-11-23T07:46:08.437Z,101514.25
2018-11-23T07:48:37.152Z,101515.14
2018-11-23T07:51:06.008Z,101512.95
2018-11-23T07:53:34.720Z,101514.22
2018-11-23T07:56:03.417Z,101506.06
2018-11-23T07:58:32.133Z,101506.89
2018-11-23T08:01:00.842Z,101508.13
2018-11-23T08:03:29.548Z,101507.30
2018-11-23T08:05:58.286Z,101507.69
2018-11-23T08:08:27.001Z,101506.77
2018-11-23T08:10:54.913Z,101496.07
2018-11-23T08:13:23.672Z,101502.05
2018-11-23T08:15:52.385Z,101495.63
2018-11-23T08:18:21.093Z,101499.85
2018-11-23T08:20:49.789Z,101495.92
2018-11-23T08:23:18.522Z,101490.69
2018-11-23T08:25:47.217Z,101495.80
2018-11-23T08:28:16.233Z,101495.73
2018-11-23T08:30:44.940Z,101489.70
2018-11-23T08:33:13.652Z,101493.09
2018-11-23T08:35:42.361Z,101489.62
2018-11-23T08:38:11.081Z,101495.96
2018-11-23T08:40:39.817Z,101488.23
2018-11-23T08:43:08.521Z,101492.83
2018-11-23T08:45:37.230Z,101494.45
2018-11-23T08:48:05.940Z,101491.00
2018-11-23T08:50:34.649Z,101488.37
2018-11-23T08:53:03.352Z,101483.99
2018-11-23T08:55:32.096Z,101476.25
2018-11-23T08:58:00.810Z,101477.44
2018-11-23T09:00:29.597Z,101476.92
2018-11-23T09:02:59.730Z,101480.19
2018-11-23T09:05:28.461Z,101490.36
2018-11-23T09:07:57.572Z,101493.29
2018-11-23T09:10:27.706Z,101489.33
2018-11-23T09:12:57.980Z,101488.44
2018-11-23T09:15:26.711Z,101484.52
2018-11-23T09:17:55.493Z,101474.58
2018-11-23T09:20:24.137Z,101472.00
2018-11-23T09:22:52.836Z,101475.33
2018-11-23T09:25:22.516Z,101468.44
2018-11-23T09:27:51.430Z,101469.19
2018-11-23T09:30:22.418Z,101470.91
2018-11-23T09:32:51.890Z,101472.66
2018-11-23T09:35:20.711Z,101482.48
2018-11-23T09:37:49.576Z,101484.13
2018-11-23T09:40:22.542Z,101494.33
2018-11-23T09:42:51.374Z,101492.92
2018-11-23T09:45:22.652Z,101483.91
2018-11-23T09:47:52.870Z,101483.41
2018-11-23T09:50:22.593Z,101477.36
2018-11-23T09:52:52.442Z,101475.10
2018-11-23T09:55:21.747Z,101481.43
2018-11-23T09:57:50.446Z,101483.89
2018-11-23T10:00:20.487Z,101480.38
2018-11-23T10:02:50.105Z,101479.01
2018-11-23T10:05:19.206Z,101474.13
2018-11-23T10:07:49.243Z,101471.86
2018-11-23T10:10:18.912Z,101460.53
2018-11-23T10:12:47.633Z,101458.64
2018-11-23T10:15:17.324Z,101459.88
2018-11-23T10:17:46.032Z,101460.58
2018-11-23T10:20:20.529Z,101462.64
2018-11-23T10:22:49.241Z,101462.93
2018-11-23T10:25:19.384Z,101459.80
2018-11-23T10:27:48.313Z,101449.77
2018-11-23T10:30:20.257Z,101439.70
2018-11-23T10:32:50.045Z,101434.41
2018-11-23T10:35:18.757Z,101429.05
2018-11-23T10:37:49.069Z,101431.00
2018-11-23T10:40:19.137Z,101426.89
2018-11-23T10:42:47.869Z,101426.73
2018-11-23T10:45:18.349Z,101420.95
2018-11-23T10:47:47.882Z,101420.84
2018-11-23T10:50:18.621Z,101420.30
2018-11-23T10:52:46.670Z,101420.58
2018-11-23T10:55:17.518Z,101423.87
2018-11-23T10:57:46.316Z,101424.24
2018-11-23T11:00:21.748Z,101424.98
2018-11-23T11:04:57.886Z,101429.95
2018-11-23T11:07:26.605Z,101424.13
2018-11-23T11:09:55.308Z,101427.84
2018-11-23T11:12:24.032Z,101426.77
2018-11-23T11:14:53.044Z,101421.81
2018-11-23T11:17:21.809Z,101418.62
2018-11-23T11:19:50.525Z,101417.95
2018-11-23T11:22:19.240Z,101413.92
2018-11-23T11:24:47.937Z,101409.05
2018-11-23T11:27:16.741Z,101401.50
2018-11-23T11:29:45.527Z,101396.95
2018-11-23T11:32:14.236Z,101396.33
2018-11-23T11:34:42.953Z,101393.13
2018-11-23T11:37:11.660Z,101383.91
2018-11-23T11:39:40.384Z,101377.09
2018-11-23T11:42:09.432Z,101375.09
2018-11-23T11:44:38.133Z,101374.42
2018-11-23T11:47:06.961Z,101370.20
2018-11-23T11:49:35.664Z,101371.55
2018-11-23T11:52:05.654Z,101361.34
2018-11-23T11:54:34.353Z,101363.58
2018-11-23T11:57:03.181Z,101370.28
2018-11-23T11:59:32.367Z,101362.19
2018-11-23T12:02:01.070Z,101358.16
2018-11-23T12:04:29.780Z,101363.56
2018-11-23T12:06:58.508Z,101357.00
2018-11-23T12:09:27.319Z,101348.72
2018-11-23T12:11:56.022Z,101353.27
2018-11-23T12:14:25.076Z,101354.42
2018-11-23T12:16:53.837Z,101352.73
2018-11-23T12:19:22.540Z,101353.56
2018-11-23T12:21:51.497Z,101355.20
2018-11-23T12:24:20.304Z,101343.48
2018-11-23T12:26:49.008Z,101344.78
2018-11-23T12:29:17.739Z,101331.51
2018-11-23T12:31:46.440Z,101328.79
2018-11-23T12:34:15.149Z,101328.79
2018-11-23T12:36:43.856Z,101327.84
2018-11-23T12:39:12.733Z,101320.92
2018-11-23T12:41:41.433Z,101327.34
2018-11-23T12:44:10.534Z,101329.86
2018-11-23T12:46:39.244Z,101325.53
2018-11-23T12:49:07.973Z,101324.62
2018-11-23T12:51:36.672Z,101322.50
2018-11-23T12:54:06.177Z,101314.31
2018-11-23T12:56:34.900Z,101313.02
2018-11-23T12:59:04.924Z,101308.28
2018-11-23T13:01:34.268Z,101305.24
2018-11-23T13:04:03.005Z,101302.28
2018-11-23T13:06:31.754Z,101300.06
2018-11-23T13:09:00.469Z,101293.48
2018-11-23T13:11:29.173Z,101285.08
2018-11-23T13:13:57.882Z,101284.19
2018-11-23T13:16:26.587Z,101282.42
2018-11-23T13:18:55.384Z,101288.80
2018-11-23T13:21:24.341Z,101285.29
2018-11-23T13:23:53.046Z,101275.70
2018-11-23T13:26:21.745Z,101286.35
2018-11-23T13:28:50.519Z,101284.89
2018-11-23T13:31:19.200Z,101274.45
2018-11-23T13:33:47.920Z,101279.54
2018-11-23T13:36:16.641Z,101286.30
2018-11-23T13:38:45.354Z,101279.41
2018-11-23T13:41:14.060Z,101278.59
2018-11-23T13:43:42.777Z,101277.60
2018-11-23T13:46:11.484Z,101272.38
2018-11-23T13:48:40.191Z,101268.42
2018-11-23T13:51:08.913Z,101270.61
2018-11-23T13:53:37.615Z,101262.72
2018-11-23T13:56:06.661Z,101264.02
2018-11-23T13:58:35.403Z,101254.02
2018-11-23T14:01:04.953Z,101256.24
2018-11-23T14:03:34.625Z,101265.31
2018-11-23T14:06:02.371Z,101258.77
2018-11-23T14:08:31.121Z,101254.09
2018-11-23T14:10:59.840Z,101254.61
2018-11-23T14:13:28.552Z,101253.75
2018-11-23T14:15:57.283Z,101252.86
2018-11-23T14:18:26.001Z,101256.48
2018-11-23T14:20:54.716Z,101253.89
2018-11-23T14:23:23.444Z,101256.07
2018-11-23T14:25:52.213Z,101255.25
2018-11-23T14:28:21.001Z,101244.41
2018-11-23T14:30:49.737Z,101242.73
2018-11-23T14:33:18.448Z,101244.03
2018-11-23T14:35:47.165Z,101249.22
2018-11-23T14:38:15.864Z,101245.42
2018-11-23T14:40:50.088Z,101244.20
2018-11-23T14:43:18.961Z,101249.45
2018-11-23T14:45:47.678Z,101239.97
2018-11-23T14:48:16.404Z,101239.19
2018-11-23T14:50:48.519Z,101234.48
2018-11-23T14:53:17.308Z,101238.13
2018-11-23T14:55:45.997Z,101234.74
2018-11-23T14:58:14.752Z,101235.39
2018-11-23T15:00:43.536Z,101238.48
2018-11-23T15:03:12.246Z,101238.59
2018-11-23T15:05:40.937Z,101228.28
2018-11-23T15:08:09.911Z,101231.39
2018-11-23T15:10:38.612Z,101231.22
2018-11-23T15:13:07.624Z,101235.90
2018-11-23T15:15:38.232Z,101228.70
2018-11-23T15:18:07.693Z,101228.80
2018-11-23T15:20:39.820Z,101228.42
2018-11-23T15:23:10.973Z,101227.22
2018-11-23T15:25:40.028Z,101225.55
2018-11-23T15:28:09.565Z,101225.20
2018-11-23T15:30:39.231Z,101223.70
2018-11-23T15:33:08.953Z,101220.32
2018-11-23T15:35:38.433Z,101217.83
2018-11-23T15:38:10.335Z,101220.05
2018-11-23T15:40:38.432Z,101208.48
2018-11-23T15:43:08.930Z,101203.94
2018-11-23T15:45:37.934Z,101211.74
2018-11-23T15:48:07.313Z,101208.84
2018-11-23T15:50:37.318Z,101206.00
2018-11-23T15:53:07.350Z,101213.77
2018-11-23T15:55:36.641Z,101211.17
2018-11-23T15:58:07.132Z,101212.54
2018-11-23T16:00:38.252Z,101210.87
2018-11-23T16:03:08.394Z,101214.78
2018-11-23T16:05:37.232Z,101219.58
2018-11-23T16:08:08.718Z,101215.41
2018-11-23T16:10:38.196Z,101214.62
2018-11-23T16:13:11.490Z,101215.57
2018-11-23T16:15:37.473Z,101215.19
2018-11-23T16:18:06.795Z,101216.02
2018-11-23T16:20:37.771Z,101219.52
2018-11-23T16:23:08.357Z,101213.64
2018-11-23T16:25:37.120Z,101213.70
2018-11-23T16:28:07.046Z,101204.64
2018-11-23T16:30:37.480Z,101210.67
2018-11-23T16:33:07.841Z,101208.97
2018-11-23T16:35:38.075Z,101210.73
2018-11-23T16:38:08.708Z,101211.18
2018-11-23T16:40:38.925Z,101212.92
2018-11-23T16:43:09.107Z,101207.23
2018-11-23T16:45:38.589Z,101203.41
2018-11-23T16:48:08.425Z,101206.86
2018-11-23T16:50:37.244Z,101206.38
2018-11-23T16:53:15.873Z,101206.45
2018-11-23T16:55:44.701Z,101209.38
2018-11-23T16:58:14.177Z,101214.15
2018-11-23T17:01:01.193Z,101211.97
2018-11-23T17:03:29.919Z,101202.50
2018-11-23T17:05:58.617Z,101206.95
2018-11-23T17:08:27.326Z,101210.55
2018-11-23T17:10:56.044Z,101208.43
2018-11-23T17:13:24.740Z,101207.95
2018-11-23T17:15:53.512Z,101204.42
2018-11-23T17:18:22.360Z,101197.16
2018-11-23T17:20:51.348Z,101201.55
2018-11-23T17:23:20.092Z,101197.73
2018-11-23T17:25:48.810Z,101201.55
2018-11-23T17:28:17.505Z,101197.66
2018-11-23T17:31:05.064Z,101195.93
2018-11-23T17:33:33.985Z,101193.41
2018-11-23T17:36:02.689Z,101187.75
2018-11-23T17:38:37.611Z,101184.28
2018-11-23T17:41:00.878Z,101184.66
2018-11-23T17:43:29.616Z,101185.80
2018-11-23T17:45:58.777Z,101183.30
2018-11-23T17:48:28.419Z,101184.22
2018-11-23T17:50:58.619Z,101182.63
2018-11-23T17:53:27.338Z,101180.61
2018-11-23T17:55:56.096Z,101167.67
2018-11-23T17:58:24.827Z,101170.64
2018-11-23T18:00:53.938Z,101175.02
2018-11-23T18:03:22.648Z,101172.56
2018-11-23T18:05:51.352Z,101171.64
2018-11-23T18:08:20.091Z,101168.27
2018-11-23T18:10:48.828Z,101167.41
2018-11-23T18:13:17.555Z,101171.86
2018-11-23T18:15:46.269Z,101163.72
2018-11-23T18:18:15.365Z,101166.02
2018-11-23T18:20:44.373Z,101165.61
2018-11-23T18:23:13.085Z,101159.26
2018-11-23T18:25:42.142Z,101159.41
2018-11-23T18:28:10.884Z,101147.48
2018-11-23T18:30:39.613Z,101145.75
2018-11-23T18:33:09.823Z,101150.01
2018-11-23T18:35:38.521Z,101145.25
2018-11-23T18:38:07.223Z,101145.33
2018-11-23T18:40:37.278Z,101136.91
2018-11-23T18:43:05.234Z,101134.44
2018-11-23T18:45:33.985Z,101132.35
2018-11-23T18:48:02.689Z,101141.05
2018-11-23T18:50:31.400Z,101138.91
2018-11-23T18:53:00.115Z,101140.17
2018-11-23T18:55:28.823Z,101138.47
2018-11-23T18:57:57.906Z,101138.47
2018-11-23T19:00:26.622Z,101138.11
2018-11-23T19:02:55.333Z,101138.67
2018-11-23T19:05:26.686Z,101131.33
2018-11-23T19:07:55.425Z,101133.62
2018-11-23T19:10:24.132Z,101125.52
2018-11-23T19:12:52.856Z,101121.78
2018-11-23T19:15:25.410Z,101113.23
2018-11-23T19:17:50.445Z,101119.81
2018-11-23T19:20:20.370Z,101116.76
2018-11-23T19:22:51.072Z,101120.46
2018-11-23T19:25:19.817Z,101118.08
2018-11-23T19:27:48.539Z,101113.84
2018-11-23T19:30:18.469Z,101106.21
2018-11-23T19:32:47.569Z,101108.88
2018-11-23T19:35:16.279Z,101103.06
2018-11-23T19:37:45.262Z,101107.84
2018-11-23T19:40:14.835Z,101102.33
2018-11-23T19:42:44.435Z,101100.18
2018-11-23T19:51:12.197Z,101086.05
2018-11-23T19:53:40.913Z,101085.69
2018-11-23T19:56:09.657Z,101082.25
2018-11-23T19:58:38.844Z,101078.85
2018-11-23T20:01:07.589Z,101076.35
2018-11-23T20:03:36.278Z,101073.91
2018-11-23T20:06:05.168Z,101071.44
2018-11-23T20:08:40.405Z,101065.56
2018-11-23T20:11:09.351Z,101065.61
2018-11-23T20:13:38.085Z,101069.12
2018-11-23T20:16:06.806Z,101068.01
2018-11-23T20:18:35.509Z,101063.78
2018-11-23T20:21:04.756Z,101066.85
2018-11-23T20:23:33.630Z,101063.97
2018-11-23T20:26:02.337Z,101058.50
2018-11-23T20:28:31.069Z,101047.02
2018-11-23T20:31:00.000Z,101048.45
2018-11-23T20:33:28.701Z,101038.31
2018-11-23T20:35:57.440Z,101034.11
2018-11-23T20:38:26.178Z,101035.12
2018-11-23T20:40:54.892Z,101029.16
2018-11-23T20:43:23.627Z,101032.65
2018-11-23T20:45:52.343Z,101028.11
2018-11-23T20:48:21.044Z,101027.81
2018-11-23T20:50:49.786Z,101030.02
2018-11-23T20:53:18.501Z,101030.63
2018-11-23T20:55:47.208Z,101037.88
2018-11-23T20:58:16.291Z,101030.19
2018-11-23T21:00:45.490Z,101030.27
2018-11-23T21:03:14.182Z,101032.97
2018-11-23T21:05:42.933Z,101028.72
2018-11-23T21:08:11.625Z,101031.78
2018-11-23T21:10:40.332Z,101036.14
2018-11-23T21:13:09.028Z,101041.48
2018-11-23T21:15:37.736Z,101039.52
2018-11-23T21:18:06.950Z,101031.41
2018-11-23T21:20:35.676Z,101033.19
2018-11-23T21:23:04.853Z,101029.91
2018-11-23T21:25:33.570Z,101021.77
2018-11-23T21:28:02.266Z,101016.61
2018-11-23T21:30:31.059Z,101019.66
2018-11-23T21:32:59.756Z,101011.98
2018-11-23T21:35:28.517Z,101010.37
2018-11-23T21:37:57.225Z,101003.61
2018-11-23T21:40:33.516Z,101002.83
2018-11-23T21:43:02.218Z,101004.17
2018-11-23T21:45:30.933Z,101004.39
2018-11-23T21:48:00.905Z,101000.52
2018-11-23T21:50:29.649Z,100995.10
2018-11-23T21:52:58.376Z,100987.01
2018-11-23T21:55:27.104Z,100984.50
2018-11-23T21:57:56.570Z,100985.52
2018-11-23T22:00:25.285Z,100983.38
2018-11-23T22:02:54.364Z,100982.99
2018-11-23T22:05:23.228Z,100980.42
2018-11-23T22:07:51.959Z,100984.72
2018-11-23T22:10:20.940Z,100988.68
2018-11-23T22:12:50.590Z,100989.50
2018-11-23T22:15:21.463Z,100988.27
2018-11-23T22:17:51.254Z,100986.59
2018-11-23T22:20:21.079Z,100987.09
2018-11-23T22:22:49.875Z,100982.05
2018-11-23T22:25:19.887Z,100986.39
2018-11-23T22:27:48.793Z,100982.52
2018-11-23T22:30:23.205Z,100985.10
2018-11-23T22:32:51.994Z,100972.22
2018-11-23T22:35:20.981Z,100972.66
2018-11-23T22:37:50.098Z,100962.77
2018-11-23T22:40:19.865Z,100964.92
2018-11-23T22:42:49.690Z,100961.65
2018-11-23T22:45:18.416Z,100954.42
2018-11-23T22:47:49.110Z,100957.16
2018-11-23T22:50:19.964Z,100961.93
2018-11-23T22:52:48.717Z,100959.95
2018-11-23T22:55:18.130Z,100958.13
2018-11-23T22:57:46.884Z,100954.69
2018-11-23T23:00:23.617Z,100950.70
2018-11-23T23:02:52.349Z,100954.84
2018-11-23T23:05:22.414Z,100949.00
2018-11-23T23:07:51.397Z,100949.42
2018-11-23T23:10:20.398Z,100946.00
2018-11-23T23:12:49.731Z,100942.50
2018-11-23T23:15:18.665Z,100936.55
2018-11-23T23:17:47.395Z,100940.84
2018-11-23T23:20:17.301Z,100942.08
2018-11-23T23:22:46.042Z,100939.02
2018-11-23T23:25:14.774Z,100936.88
2018-11-23T23:27:43.652Z,100931.61
2018-11-23T23:30:13.702Z,100937.52
2018-11-23T23:32:42.481Z,100935.53
2018-11-23T23:35:12.133Z,100931.72
2018-11-23T23:37:41.288Z,100933.44
2018-11-23T23:40:11.147Z,100935.05
2018-11-23T23:42:39.843Z,100932.85
2018-11-23T23:45:11.636Z,100927.31
2018-11-23T23:47:40.373Z,100917.13
2018-11-23T23:50:14.115Z,100922.11
2018-11-23T23:52:42.865Z,100932.47
2018-11-23T23:55:11.606Z,100929.84
2018-11-23T23:57:41.309Z,100922.91
